sensor_id;sensor_type;location;lat;lon;timestamp;P1;durP1;ratioP1;P2;durP2;ratioP2
25637;SDS011;13496;51.040;13.680;2023-06-01T00:01:10;4.72;;;3.60;;
25637;SDS011;13496;51.040;13.680;2023-06-01T00:06:14;4.10;;;3.03;;
25637;SDS011;13496;51.040;13.680;2023-06-01T00:11:16;5.63;;;3.70;;
25637;SDS011;13496;51.040;13.680;2023-06-01T00:16:17;4.20;;;3.42;;
25637;SDS011;13496;51.040;13.680;2023-06-01T00:21:20;5.55;;;3.60;;
25637;SDS011;13496;51.040;13.680;2023-06-01T00:26:21;5.15;;;3.25;;
25637;SDS011;13496;51.040;13.680;2023-06-01T00:31:26;3.60;;;2.92;;
25637;SDS011;13496;51.040;13.680;2023-06-01T00:36:29;3.13;;;2.83;;
25637;SDS011;13496;51.040;13.680;2023-06-01T00:41:31;3.20;;;2.90;;
25637;SDS011;13496;51.040;13.680;2023-06-01T00:46:34;3.08;;;2.72;;
25637;SDS011;13496;51.040;13.680;2023-06-01T00:51:38;3.25;;;2.80;;
25637;SDS011;13496;51.040;13.680;2023-06-01T00:56:40;2.85;;;2.58;;
25637;SDS011;13496;51.040;13.680;2023-06-01T01:01:42;2.55;;;2.35;;
25637;SDS011;13496;51.040;13.680;2023-06-01T01:12:09;3.67;;;2.70;;
25637;SDS011;13496;51.040;13.680;2023-06-01T01:17:29;3.65;;;2.30;;
25637;SDS011;13496;51.040;13.680;2023-06-01T01:22:49;4.43;;;2.90;;
25637;SDS011;13496;51.040;13.680;2023-06-01T01:33:29;3.72;;;2.58;;
25637;SDS011;13496;51.040;13.680;2023-06-01T01:38:34;2.90;;;2.55;;
25637;SDS011;13496;51.040;13.680;2023-06-01T01:43:37;2.75;;;2.47;;
25637;SDS011;13496;51.040;13.680;2023-06-01T01:48:44;3.80;;;2.75;;
25637;SDS011;13496;51.040;13.680;2023-06-01T01:53:50;3.67;;;2.70;;
25637;SDS011;13496;51.040;13.680;2023-06-01T01:58:53;2.88;;;2.60;;
25637;SDS011;13496;51.040;13.680;2023-06-01T02:04:03;3.92;;;2.70;;
25637;SDS011;13496;51.040;13.680;2023-06-01T02:09:08;3.28;;;2.80;;
25637;SDS011;13496;51.040;13.680;2023-06-01T02:14:10;4.70;;;2.90;;
25637;SDS011;13496;51.040;13.680;2023-06-01T02:19:13;3.10;;;2.80;;
25637;SDS011;13496;51.040;13.680;2023-06-01T02:24:16;3.80;;;2.65;;
25637;SDS011;13496;51.040;13.680;2023-06-01T02:29:20;3.28;;;2.40;;
25637;SDS011;13496;51.040;13.680;2023-06-01T02:34:24;3.75;;;2.72;;
25637;SDS011;13496;51.040;13.680;2023-06-01T02:39:26;3.00;;;2.35;;
25637;SDS011;13496;51.040;13.680;2023-06-01T02:44:28;2.60;;;2.40;;
25637;SDS011;13496;51.040;13.680;2023-06-01T02:49:30;3.50;;;2.45;;
25637;SDS011;13496;51.040;13.680;2023-06-01T02:54:32;3.33;;;2.60;;
25637;SDS011;13496;51.040;13.680;2023-06-01T02:59:40;4.65;;;2.95;;
25637;SDS011;13496;51.040;13.680;2023-06-01T03:04:42;5.10;;;3.50;;
25637;SDS011;13496;51.040;13.680;2023-06-01T03:09:44;3.30;;;2.67;;
25637;SDS011;13496;51.040;13.680;2023-06-01T03:14:49;3.00;;;2.60;;
25637;SDS011;13496;51.040;13.680;2023-06-01T03:19:50;4.28;;;3.00;;
25637;SDS011;13496;51.040;13.680;2023-06-01T03:24:57;3.70;;;3.25;;
25637;SDS011;13496;51.040;13.680;2023-06-01T03:30:04;5.85;;;3.45;;
25637;SDS011;13496;51.040;13.680;2023-06-01T03:35:11;4.18;;;3.40;;
25637;SDS011;13496;51.040;13.680;2023-06-01T03:40:13;4.07;;;3.33;;
25637;SDS011;13496;51.040;13.680;2023-06-01T03:45:15;6.32;;;3.50;;
25637;SDS011;13496;51.040;13.680;2023-06-01T03:50:18;4.35;;;3.45;;
25637;SDS011;13496;51.040;13.680;2023-06-01T03:55:20;7.47;;;3.00;;
25637;SDS011;13496;51.040;13.680;2023-06-01T04:00:38;5.53;;;3.65;;
25637;SDS011;13496;51.040;13.680;2023-06-01T04:05:40;3.90;;;2.67;;
25637;SDS011;13496;51.040;13.680;2023-06-01T04:10:42;3.03;;;2.72;;
25637;SDS011;13496;51.040;13.680;2023-06-01T04:15:46;3.20;;;2.90;;
25637;SDS011;13496;51.040;13.680;2023-06-01T04:20:49;5.80;;;2.80;;
25637;SDS011;13496;51.040;13.680;2023-06-01T04:25:52;6.07;;;3.00;;
25637;SDS011;13496;51.040;13.680;2023-06-01T04:30:57;6.40;;;3.60;;
25637;SDS011;13496;51.040;13.680;2023-06-01T04:35:58;3.58;;;2.85;;
25637;SDS011;13496;51.040;13.680;2023-06-01T04:41:03;4.07;;;3.15;;
25637;SDS011;13496;51.040;13.680;2023-06-01T04:46:06;5.57;;;3.03;;
25637;SDS011;13496;51.040;13.680;2023-06-01T04:51:09;5.80;;;3.67;;
25637;SDS011;13496;51.040;13.680;2023-06-01T04:56:11;5.65;;;3.85;;
25637;SDS011;13496;51.040;13.680;2023-06-01T05:01:13;5.93;;;3.30;;
25637;SDS011;13496;51.040;13.680;2023-06-01T05:06:16;6.05;;;3.03;;
25637;SDS011;13496;51.040;13.680;2023-06-01T05:11:18;6.13;;;3.70;;
25637;SDS011;13496;51.040;13.680;2023-06-01T05:16:20;4.18;;;3.30;;
25637;SDS011;13496;51.040;13.680;2023-06-01T05:21:23;4.65;;;3.20;;
25637;SDS011;13496;51.040;13.680;2023-06-01T05:26:25;6.50;;;3.17;;
25637;SDS011;13496;51.040;13.680;2023-06-01T05:31:28;4.82;;;3.20;;
25637;SDS011;13496;51.040;13.680;2023-06-01T05:36:31;3.55;;;2.85;;
25637;SDS011;13496;51.040;13.680;2023-06-01T05:41:34;4.35;;;3.30;;
25637;SDS011;13496;51.040;13.680;2023-06-01T05:46:36;5.60;;;3.47;;
25637;SDS011;13496;51.040;13.680;2023-06-01T05:51:39;3.67;;;3.28;;
25637;SDS011;13496;51.040;13.680;2023-06-01T05:56:42;5.03;;;3.47;;
25637;SDS011;13496;51.040;13.680;2023-06-01T06:01:45;5.70;;;3.20;;
25637;SDS011;13496;51.040;13.680;2023-06-01T06:06:47;4.95;;;3.38;;
25637;SDS011;13496;51.040;13.680;2023-06-01T06:11:49;5.20;;;3.13;;
25637;SDS011;13496;51.040;13.680;2023-06-01T06:16:51;5.95;;;3.30;;
25637;SDS011;13496;51.040;13.680;2023-06-01T06:21:53;9.23;;;3.38;;
25637;SDS011;13496;51.040;13.680;2023-06-01T06:26:54;4.70;;;3.30;;
25637;SDS011;13496;51.040;13.680;2023-06-01T06:31:56;4.97;;;3.40;;
25637;SDS011;13496;51.040;13.680;2023-06-01T06:36:58;6.47;;;3.70;;
25637;SDS011;13496;51.040;13.680;2023-06-01T06:42:00;9.85;;;3.30;;
25637;SDS011;13496;51.040;13.680;2023-06-01T06:47:03;5.55;;;3.45;;
25637;SDS011;13496;51.040;13.680;2023-06-01T06:52:05;7.22;;;3.10;;
25637;SDS011;13496;51.040;13.680;2023-06-01T06:57:07;4.13;;;3.33;;
25637;SDS011;13496;51.040;13.680;2023-06-01T07:02:09;6.57;;;3.17;;
25637;SDS011;13496;51.040;13.680;2023-06-01T07:07:11;9.85;;;4.05;;
25637;SDS011;13496;51.040;13.680;2023-06-01T07:12:13;6.97;;;3.58;;
25637;SDS011;13496;51.040;13.680;2023-06-01T07:17:15;7.15;;;3.72;;
25637;SDS011;13496;51.040;13.680;2023-06-01T07:22:16;7.70;;;4.10;;
25637;SDS011;13496;51.040;13.680;2023-06-01T07:27:18;7.97;;;4.45;;
25637;SDS011;13496;51.040;13.680;2023-06-01T07:32:22;9.80;;;4.07;;
25637;SDS011;13496;51.040;13.680;2023-06-01T07:37:24;7.22;;;3.55;;
25637;SDS011;13496;51.040;13.680;2023-06-01T07:42:28;8.60;;;3.92;;
25637;SDS011;13496;51.040;13.680;2023-06-01T07:47:29;11.43;;;3.40;;
25637;SDS011;13496;51.040;13.680;2023-06-01T07:52:31;9.18;;;3.33;;
25637;SDS011;13496;51.040;13.680;2023-06-01T07:57:33;5.38;;;3.83;;
25637;SDS011;13496;51.040;13.680;2023-06-01T08:02:35;8.35;;;3.75;;
25637;SDS011;13496;51.040;13.680;2023-06-01T08:07:37;10.00;;;3.45;;
25637;SDS011;13496;51.040;13.680;2023-06-01T08:12:39;7.55;;;3.75;;
25637;SDS011;13496;51.040;13.680;2023-06-01T08:17:41;5.05;;;3.17;;
25637;SDS011;13496;51.040;13.680;2023-06-01T08:22:43;4.55;;;3.22;;
25637;SDS011;13496;51.040;13.680;2023-06-01T08:27:44;3.60;;;2.92;;
25637;SDS011;13496;51.040;13.680;2023-06-01T08:32:47;5.40;;;2.67;;
25637;SDS011;13496;51.040;13.680;2023-06-01T08:37:50;4.00;;;3.22;;
25637;SDS011;13496;51.040;13.680;2023-06-01T08:43:35;4.53;;;3.42;;
25637;SDS011;13496;51.040;13.680;2023-06-01T08:48:20;3.88;;;3.25;;
25637;SDS011;13496;51.040;13.680;2023-06-01T08:53:22;7.30;;;3.50;;
25637;SDS011;13496;51.040;13.680;2023-06-01T08:58:24;5.18;;;3.03;;
25637;SDS011;13496;51.040;13.680;2023-06-01T09:03:26;7.43;;;3.22;;
25637;SDS011;13496;51.040;13.680;2023-06-01T09:08:28;4.00;;;2.88;;
25637;SDS011;13496;51.040;13.680;2023-06-01T09:13:31;6.32;;;2.90;;
25637;SDS011;13496;51.040;13.680;2023-06-01T09:18:36;3.53;;;2.72;;
25637;SDS011;13496;51.040;13.680;2023-06-01T09:23:51;5.93;;;2.92;;
25637;SDS011;13496;51.040;13.680;2023-06-01T09:28:53;3.63;;;2.55;;
25637;SDS011;13496;51.040;13.680;2023-06-01T09:34:01;2.80;;;2.22;;
25637;SDS011;13496;51.040;13.680;2023-06-01T09:39:05;4.38;;;2.75;;
25637;SDS011;13496;51.040;13.680;2023-06-01T09:44:08;3.85;;;2.80;;
25637;SDS011;13496;51.040;13.680;2023-06-01T09:49:09;3.25;;;2.95;;
25637;SDS011;13496;51.040;13.680;2023-06-01T09:54:21;3.58;;;2.47;;
25637;SDS011;13496;51.040;13.680;2023-06-01T09:59:27;3.85;;;2.53;;
25637;SDS011;13496;51.040;13.680;2023-06-01T10:04:30;3.13;;;2.38;;
25637;SDS011;13496;51.040;13.680;2023-06-01T10:09:32;6.10;;;2.80;;
25637;SDS011;13496;51.040;13.680;2023-06-01T10:14:37;4.65;;;3.13;;
25637;SDS011;13496;51.040;13.680;2023-06-01T10:19:40;3.75;;;2.75;;
25637;SDS011;13496;51.040;13.680;2023-06-01T10:24:42;5.03;;;2.80;;
25637;SDS011;13496;51.040;13.680;2023-06-01T10:29:45;3.65;;;2.22;;
25637;SDS011;13496;51.040;13.680;2023-06-01T10:34:46;4.18;;;2.92;;
25637;SDS011;13496;51.040;13.680;2023-06-01T10:39:48;4.10;;;3.08;;
25637;SDS011;13496;51.040;13.680;2023-06-01T10:44:50;3.80;;;3.00;;
25637;SDS011;13496;51.040;13.680;2023-06-01T10:54:53;4.95;;;2.88;;
25637;SDS011;13496;51.040;13.680;2023-06-01T11:05:36;4.47;;;3.15;;
25637;SDS011;13496;51.040;13.680;2023-06-01T11:21:05;5.07;;;2.95;;
25637;SDS011;13496;51.040;13.680;2023-06-01T11:26:08;6.43;;;3.33;;
25637;SDS011;13496;51.040;13.680;2023-06-01T11:31:10;6.13;;;3.13;;
25637;SDS011;13496;51.040;13.680;2023-06-01T11:36:13;5.50;;;3.05;;
25637;SDS011;13496;51.040;13.680;2023-06-01T11:41:19;5.05;;;2.92;;
25637;SDS011;13496;51.040;13.680;2023-06-01T11:46:22;4.30;;;3.35;;
25637;SDS011;13496;51.040;13.680;2023-06-01T11:51:24;6.13;;;3.13;;
25637;SDS011;13496;51.040;13.680;2023-06-01T11:56:32;5.25;;;3.15;;
25637;SDS011;13496;51.040;13.680;2023-06-01T12:01:36;3.95;;;2.70;;
25637;SDS011;13496;51.040;13.680;2023-06-01T12:06:43;4.93;;;2.60;;
25637;SDS011;13496;51.040;13.680;2023-06-01T12:11:46;3.85;;;2.90;;
25637;SDS011;13496;51.040;13.680;2023-06-01T12:16:55;5.88;;;3.33;;
25637;SDS011;13496;51.040;13.680;2023-06-01T12:22:02;6.07;;;3.40;;
25637;SDS011;13496;51.040;13.680;2023-06-01T12:27:12;4.18;;;3.45;;
25637;SDS011;13496;51.040;13.680;2023-06-01T12:32:17;5.43;;;4.28;;
25637;SDS011;13496;51.040;13.680;2023-06-01T12:37:20;5.88;;;3.65;;
25637;SDS011;13496;51.040;13.680;2023-06-01T12:42:37;4.18;;;3.13;;
25637;SDS011;13496;51.040;13.680;2023-06-01T12:47:40;9.27;;;3.83;;
25637;SDS011;13496;51.040;13.680;2023-06-01T12:52:43;5.72;;;3.95;;
25637;SDS011;13496;51.040;13.680;2023-06-01T12:57:51;5.30;;;3.85;;
25637;SDS011;13496;51.040;13.680;2023-06-01T13:02:54;4.63;;;3.50;;
25637;SDS011;13496;51.040;13.680;2023-06-01T13:07:56;8.82;;;4.20;;
25637;SDS011;13496;51.040;13.680;2023-06-01T13:12:58;4.78;;;3.92;;
25637;SDS011;13496;51.040;13.680;2023-06-01T13:18:00;6.65;;;4.55;;
25637;SDS011;13496;51.040;13.680;2023-06-01T13:23:02;8.07;;;4.13;;
25637;SDS011;13496;51.040;13.680;2023-06-01T13:28:05;5.13;;;3.90;;
25637;SDS011;13496;51.040;13.680;2023-06-01T13:33:09;7.28;;;4.80;;
25637;SDS011;13496;51.040;13.680;2023-06-01T13:38:10;7.85;;;4.97;;
25637;SDS011;13496;51.040;13.680;2023-06-01T13:43:12;6.07;;;4.72;;
25637;SDS011;13496;51.040;13.680;2023-06-01T13:48:14;5.55;;;4.93;;
25637;SDS011;13496;51.040;13.680;2023-06-01T13:53:15;6.00;;;5.43;;
25637;SDS011;13496;51.040;13.680;2023-06-01T13:58:17;6.72;;;5.35;;
25637;SDS011;13496;51.040;13.680;2023-06-01T14:03:19;8.55;;;6.28;;
25637;SDS011;13496;51.040;13.680;2023-06-01T14:08:21;7.32;;;5.93;;
25637;SDS011;13496;51.040;13.680;2023-06-01T14:13:23;9.68;;;6.95;;
25637;SDS011;13496;51.040;13.680;2023-06-01T14:18:24;8.00;;;6.60;;
25637;SDS011;13496;51.040;13.680;2023-06-01T14:23:26;12.35;;;6.05;;
25637;SDS011;13496;51.040;13.680;2023-06-01T14:28:28;8.23;;;6.53;;
25637;SDS011;13496;51.040;13.680;2023-06-01T14:33:30;7.45;;;5.75;;
25637;SDS011;13496;51.040;13.680;2023-06-01T14:38:31;7.93;;;6.10;;
25637;SDS011;13496;51.040;13.680;2023-06-01T14:43:33;6.13;;;5.50;;
25637;SDS011;13496;51.040;13.680;2023-06-01T14:48:35;5.78;;;5.07;;
25637;SDS011;13496;51.040;13.680;2023-06-01T14:53:36;9.32;;;5.25;;
25637;SDS011;13496;51.040;13.680;2023-06-01T14:58:40;6.97;;;5.32;;
25637;SDS011;13496;51.040;13.680;2023-06-01T15:03:42;9.27;;;5.07;;
25637;SDS011;13496;51.040;13.680;2023-06-01T15:08:44;7.90;;;4.30;;
25637;SDS011;13496;51.040;13.680;2023-06-01T15:13:45;6.13;;;4.28;;
25637;SDS011;13496;51.040;13.680;2023-06-01T15:18:47;4.78;;;4.28;;
25637;SDS011;13496;51.040;13.680;2023-06-01T15:23:49;4.20;;;3.90;;
25637;SDS011;13496;51.040;13.680;2023-06-01T15:28:50;6.15;;;3.95;;
25637;SDS011;13496;51.040;13.680;2023-06-01T15:33:52;5.13;;;4.20;;
25637;SDS011;13496;51.040;13.680;2023-06-01T15:38:54;6.35;;;4.63;;
25637;SDS011;13496;51.040;13.680;2023-06-01T15:43:55;8.65;;;4.90;;
25637;SDS011;13496;51.040;13.680;2023-06-01T15:48:57;6.18;;;4.38;;
25637;SDS011;13496;51.040;13.680;2023-06-01T15:53:59;5.07;;;4.50;;
25637;SDS011;13496;51.040;13.680;2023-06-01T15:59:01;6.20;;;5.25;;
25637;SDS011;13496;51.040;13.680;2023-06-01T16:04:02;6.28;;;4.85;;
25637;SDS011;13496;51.040;13.680;2023-06-01T16:09:04;6.30;;;4.85;;
25637;SDS011;13496;51.040;13.680;2023-06-01T16:14:06;6.32;;;5.03;;
25637;SDS011;13496;51.040;13.680;2023-06-01T16:19:07;5.20;;;4.70;;
25637;SDS011;13496;51.040;13.680;2023-06-01T16:24:09;6.00;;;4.72;;
25637;SDS011;13496;51.040;13.680;2023-06-01T16:29:11;5.32;;;4.88;;
25637;SDS011;13496;51.040;13.680;2023-06-01T16:34:12;6.53;;;4.30;;
25637;SDS011;13496;51.040;13.680;2023-06-01T16:39:14;5.10;;;3.80;;
25637;SDS011;13496;51.040;13.680;2023-06-01T16:44:16;3.95;;;3.50;;
25637;SDS011;13496;51.040;13.680;2023-06-01T16:49:18;7.22;;;4.18;;
25637;SDS011;13496;51.040;13.680;2023-06-01T16:54:20;5.32;;;3.70;;
25637;SDS011;13496;51.040;13.680;2023-06-01T16:59:22;4.82;;;4.32;;
25637;SDS011;13496;51.040;13.680;2023-06-01T17:04:23;4.53;;;3.70;;
25637;SDS011;13496;51.040;13.680;2023-06-01T17:09:25;4.82;;;4.20;;
25637;SDS011;13496;51.040;13.680;2023-06-01T17:14:27;5.13;;;4.15;;
25637;SDS011;13496;51.040;13.680;2023-06-01T17:19:28;6.03;;;4.05;;
25637;SDS011;13496;51.040;13.680;2023-06-01T17:24:31;4.18;;;3.78;;
25637;SDS011;13496;51.040;13.680;2023-06-01T17:29:33;4.70;;;4.03;;
25637;SDS011;13496;51.040;13.680;2023-06-01T17:34:35;4.50;;;3.65;;
25637;SDS011;13496;51.040;13.680;2023-06-01T17:39:39;3.65;;;3.10;;
25637;SDS011;13496;51.040;13.680;2023-06-01T17:44:41;4.63;;;3.55;;
25637;SDS011;13496;51.040;13.680;2023-06-01T17:49:43;7.28;;;3.60;;
25637;SDS011;13496;51.040;13.680;2023-06-01T17:54:44;6.65;;;3.60;;
25637;SDS011;13496;51.040;13.680;2023-06-01T17:59:46;5.88;;;3.60;;
25637;SDS011;13496;51.040;13.680;2023-06-01T18:04:50;4.95;;;3.42;;
25637;SDS011;13496;51.040;13.680;2023-06-01T18:09:52;6.75;;;3.72;;
25637;SDS011;13496;51.040;13.680;2023-06-01T18:14:53;4.70;;;3.60;;
25637;SDS011;13496;51.040;13.680;2023-06-01T18:19:55;3.47;;;3.10;;
25637;SDS011;13496;51.040;13.680;2023-06-01T18:24:57;4.50;;;3.88;;
25637;SDS011;13496;51.040;13.680;2023-06-01T18:29:59;5.28;;;3.70;;
25637;SDS011;13496;51.040;13.680;2023-06-01T18:35:00;6.13;;;3.90;;
25637;SDS011;13496;51.040;13.680;2023-06-01T18:40:02;5.15;;;3.65;;
25637;SDS011;13496;51.040;13.680;2023-06-01T18:45:04;6.30;;;3.35;;
25637;SDS011;13496;51.040;13.680;2023-06-01T18:50:08;6.60;;;3.35;;
25637;SDS011;13496;51.040;13.680;2023-06-01T18:55:09;4.25;;;3.65;;
25637;SDS011;13496;51.040;13.680;2023-06-01T19:00:14;4.45;;;3.70;;
25637;SDS011;13496;51.040;13.680;2023-06-01T19:05:19;4.25;;;3.70;;
25637;SDS011;13496;51.040;13.680;2023-06-01T19:15:55;6.32;;;3.92;;
25637;SDS011;13496;51.040;13.680;2023-06-01T19:26:19;5.70;;;3.70;;
25637;SDS011;13496;51.040;13.680;2023-06-01T19:31:23;5.85;;;3.83;;
25637;SDS011;13496;51.040;13.680;2023-06-01T19:41:42;5.03;;;3.85;;
25637;SDS011;13496;51.040;13.680;2023-06-01T19:46:45;5.78;;;3.38;;
25637;SDS011;13496;51.040;13.680;2023-06-01T19:51:47;4.57;;;3.45;;
25637;SDS011;13496;51.040;13.680;2023-06-01T19:56:49;4.72;;;3.80;;
25637;SDS011;13496;51.040;13.680;2023-06-01T20:01:56;6.65;;;4.15;;
25637;SDS011;13496;51.040;13.680;2023-06-01T20:06:58;5.97;;;3.63;;
25637;SDS011;13496;51.040;13.680;2023-06-01T20:12:00;5.30;;;3.58;;
25637;SDS011;13496;51.040;13.680;2023-06-01T20:17:02;4.60;;;3.60;;
25637;SDS011;13496;51.040;13.680;2023-06-01T20:22:07;4.93;;;3.95;;
25637;SDS011;13496;51.040;13.680;2023-06-01T20:27:09;5.55;;;3.83;;
25637;SDS011;13496;51.040;13.680;2023-06-01T20:32:13;5.78;;;3.75;;
25637;SDS011;13496;51.040;13.680;2023-06-01T20:37:14;8.10;;;4.30;;
25637;SDS011;13496;51.040;13.680;2023-06-01T20:42:17;5.82;;;4.03;;
25637;SDS011;13496;51.040;13.680;2023-06-01T20:47:19;7.90;;;4.15;;
25637;SDS011;13496;51.040;13.680;2023-06-01T20:52:21;6.40;;;3.80;;
25637;SDS011;13496;51.040;13.680;2023-06-01T20:57:22;5.47;;;4.57;;
25637;SDS011;13496;51.040;13.680;2023-06-01T21:02:24;7.53;;;4.15;;
25637;SDS011;13496;51.040;13.680;2023-06-01T21:07:33;8.88;;;4.25;;
25637;SDS011;13496;51.040;13.680;2023-06-01T21:12:35;4.25;;;3.85;;
25637;SDS011;13496;51.040;13.680;2023-06-01T21:17:36;5.38;;;4.00;;
25637;SDS011;13496;51.040;13.680;2023-06-01T21:22:38;7.65;;;4.32;;
25637;SDS011;13496;51.040;13.680;2023-06-01T21:27:40;6.22;;;4.00;;
25637;SDS011;13496;51.040;13.680;2023-06-01T21:32:41;5.32;;;4.13;;
25637;SDS011;13496;51.040;13.680;2023-06-01T21:37:44;6.68;;;4.05;;
25637;SDS011;13496;51.040;13.680;2023-06-01T21:42:45;9.07;;;4.13;;
25637;SDS011;13496;51.040;13.680;2023-06-01T21:47:47;4.68;;;4.07;;
25637;SDS011;13496;51.040;13.680;2023-06-01T21:52:49;5.72;;;4.13;;
25637;SDS011;13496;51.040;13.680;2023-06-01T21:57:50;5.50;;;3.97;;
25637;SDS011;13496;51.040;13.680;2023-06-01T22:02:52;5.57;;;4.13;;
25637;SDS011;13496;51.040;13.680;2023-06-01T22:07:55;7.40;;;4.43;;
25637;SDS011;13496;51.040;13.680;2023-06-01T22:12:56;4.28;;;3.70;;
25637;SDS011;13496;51.040;13.680;2023-06-01T22:17:59;5.75;;;3.90;;
25637;SDS011;13496;51.040;13.680;2023-06-01T22:23:00;5.70;;;3.50;;
25637;SDS011;13496;51.040;13.680;2023-06-01T22:28:02;7.18;;;4.30;;
25637;SDS011;13496;51.040;13.680;2023-06-01T22:33:04;6.50;;;4.10;;
25637;SDS011;13496;51.040;13.680;2023-06-01T22:38:06;7.15;;;4.35;;
25637;SDS011;13496;51.040;13.680;2023-06-01T22:43:07;4.30;;;3.90;;
25637;SDS011;13496;51.040;13.680;2023-06-01T22:48:09;5.85;;;4.03;;
25637;SDS011;13496;51.040;13.680;2023-06-01T22:53:11;4.85;;;3.80;;
25637;SDS011;13496;51.040;13.680;2023-06-01T22:58:12;7.72;;;4.00;;
25637;SDS011;13496;51.040;13.680;2023-06-01T23:03:14;7.00;;;4.40;;
25637;SDS011;13496;51.040;13.680;2023-06-01T23:08:16;5.13;;;3.58;;
25637;SDS011;13496;51.040;13.680;2023-06-01T23:13:20;7.03;;;3.67;;
25637;SDS011;13496;51.040;13.680;2023-06-01T23:18:25;6.28;;;4.13;;
25637;SDS011;13496;51.040;13.680;2023-06-01T23:23:33;5.68;;;3.95;;
25637;SDS011;13496;51.040;13.680;2023-06-01T23:34:08;7.47;;;4.00;;
25637;SDS011;13496;51.040;13.680;2023-06-01T23:39:10;7.45;;;4.03;;
25637;SDS011;13496;51.040;13.680;2023-06-01T23:44:13;7.15;;;4.13;;
25637;SDS011;13496;51.040;13.680;2023-06-01T23:49:15;5.32;;;3.75;;
25637;SDS011;13496;51.040;13.680;2023-06-01T23:54:17;5.47;;;4.28;;
25637;SDS011;13496;51.040;13.680;2023-06-01T23:59:18;5.10;;;3.80;;
